createdAt,value
2023-01-19T00:02:16.681Z,3.67
2023-01-19T00:07:37.301Z,3.50
2023-01-19T00:12:58.526Z,4.20
2023-01-19T00:18:20.954Z,2.75
2023-01-19T00:23:42.577Z,1.92
2023-01-19T00:29:04.665Z,2.10
2023-01-19T00:34:25.343Z,3.35
2023-01-19T00:39:45.822Z,1.83
2023-01-19T00:45:08.869Z,1.73
2023-01-19T00:50:31.477Z,1.55
2023-01-19T00:55:52.359Z,0.65
2023-01-19T01:01:13.352Z,1.02
2023-01-19T01:06:34.003Z,0.63
2023-01-19T01:11:54.592Z,0.82
2023-01-19T01:17:15.548Z,1.02
2023-01-19T01:22:35.956Z,1.83
2023-01-19T01:27:56.878Z,1.17
2023-01-19T01:33:40.847Z,1.48
2023-01-19T01:38:58.134Z,0.90
2023-01-19T01:44:49.510Z,0.70
2023-01-19T01:50:22.487Z,1.02
2023-01-19T01:55:49.257Z,1.02
2023-01-19T02:01:29.217Z,0.93
2023-01-19T02:07:08.923Z,1.05
2023-01-19T02:12:48.508Z,1.20
2023-01-19T02:18:09.139Z,1.02
2023-01-19T02:23:45.188Z,0.50
2023-01-19T02:29:09.726Z,1.00
2023-01-19T02:39:54.683Z,0.90
2023-01-19T02:45:19.871Z,1.63
2023-01-19T02:50:46.131Z,1.35
2023-01-19T02:56:23.284Z,1.83
2023-01-19T03:01:49.882Z,1.63
2023-01-19T03:07:15.343Z,0.88
2023-01-19T03:12:41.083Z,5.32
2023-01-19T03:18:03.705Z,2.40
2023-01-19T03:23:29.036Z,4.68
2023-01-19T03:28:51.500Z,4.10
2023-01-19T03:34:14.981Z,5.38
2023-01-19T03:39:35.892Z,5.55
2023-01-19T03:45:00.067Z,5.47
2023-01-19T03:50:27.138Z,6.25
2023-01-19T03:55:50.553Z,4.32
2023-01-19T04:01:11.126Z,6.60
2023-01-19T04:06:32.151Z,5.90
2023-01-19T04:11:52.962Z,5.43
2023-01-19T04:17:14.065Z,3.88
2023-01-19T04:22:35.448Z,6.30
2023-01-19T04:27:58.410Z,5.22
2023-01-19T04:33:19.755Z,7.72
2023-01-19T04:38:40.479Z,7.05
2023-01-19T04:44:00.954Z,6.72
2023-01-19T04:49:21.631Z,6.95
2023-01-19T04:54:42.233Z,6.18
2023-01-19T05:00:06.638Z,7.60
2023-01-19T05:05:27.384Z,7.22
2023-01-19T05:10:48.117Z,6.32
2023-01-19T05:16:08.682Z,5.88
2023-01-19T05:21:28.994Z,7.18
2023-01-19T05:26:49.407Z,6.18
2023-01-19T05:32:09.795Z,8.07
2023-01-19T05:37:32.662Z,3.80
2023-01-19T05:42:53.574Z,4.15
2023-01-19T05:48:14.103Z,6.13
2023-01-19T05:53:34.728Z,5.75
2023-01-19T05:58:55.495Z,5.65
2023-01-19T06:04:16.299Z,6.18
2023-01-19T06:09:36.897Z,5.38
2023-01-19T06:14:57.290Z,5.90
2023-01-19T06:20:18.320Z,5.45
2023-01-19T06:25:39.275Z,5.70
2023-01-19T06:31:00.007Z,7.05
2023-01-19T06:36:20.893Z,6.03
2023-01-19T06:41:42.068Z,6.93
2023-01-19T06:47:15.825Z,6.40
2023-01-19T06:52:42.147Z,3.97
2023-01-19T06:58:02.935Z,6.40
2023-01-19T07:03:23.617Z,6.85
2023-01-19T07:08:44.664Z,7.55
2023-01-19T07:14:05.412Z,7.78
2023-01-19T07:19:26.115Z,5.90
2023-01-19T07:24:46.720Z,6.75
2023-01-19T07:30:08.858Z,5.68
2023-01-19T07:35:29.686Z,6.00
2023-01-19T07:40:50.450Z,6.72
2023-01-19T07:46:11.023Z,6.40
2023-01-19T07:51:31.856Z,7.63
2023-01-19T07:56:55.520Z,6.50
2023-01-19T08:02:17.254Z,6.00
2023-01-19T08:07:38.514Z,7.15
2023-01-19T08:12:59.687Z,7.55
2023-01-19T08:18:21.473Z,7.38
2023-01-19T08:23:42.392Z,6.95
2023-01-19T08:29:05.411Z,7.35
2023-01-19T08:34:26.125Z,8.15
2023-01-19T08:39:46.972Z,7.65
2023-01-19T08:45:09.289Z,8.52
2023-01-19T08:50:31.822Z,5.82
2023-01-19T08:56:01.267Z,7.43
2023-01-19T09:01:22.284Z,6.80
2023-01-19T09:06:43.240Z,6.72
2023-01-19T09:12:03.928Z,7.25
2023-01-19T09:17:24.753Z,5.00
2023-01-19T09:22:47.603Z,3.05
2023-01-19T09:28:09.727Z,5.35
2023-01-19T09:33:30.275Z,4.13
2023-01-19T09:38:51.674Z,4.55
2023-01-19T09:44:24.676Z,3.90
2023-01-19T09:49:52.306Z,3.72
2023-01-19T09:55:41.128Z,4.90
2023-01-19T10:01:18.149Z,4.38
2023-01-19T10:06:39.123Z,4.85
2023-01-19T10:12:08.360Z,5.78
2023-01-19T10:18:06.065Z,4.13
2023-01-19T10:23:39.719Z,3.42
2023-01-19T10:29:09.954Z,3.13
2023-01-19T10:34:31.626Z,1.10
2023-01-19T10:39:54.870Z,1.10
2023-01-19T10:45:21.266Z,1.30
2023-01-19T10:50:42.178Z,0.93
2023-01-19T10:56:16.509Z,0.93
2023-01-19T11:01:37.965Z,1.35
2023-01-19T11:07:17.878Z,1.15
2023-01-19T11:13:01.354Z,1.33
2023-01-19T11:18:43.115Z,2.00
2023-01-19T11:24:05.460Z,2.30
2023-01-19T11:29:27.319Z,1.73
2023-01-19T11:34:48.335Z,1.50
2023-01-19T11:40:09.736Z,0.88
2023-01-19T11:45:33.037Z,1.15
2023-01-19T11:50:54.477Z,1.10
2023-01-19T11:56:15.860Z,1.25
2023-01-19T12:01:44.847Z,0.88
2023-01-19T12:07:10.544Z,0.55
2023-01-19T12:12:35.360Z,0.57
2023-01-19T12:18:00.270Z,0.77
2023-01-19T12:23:45.773Z,0.70
2023-01-19T12:29:15.557Z,0.90
2023-01-19T12:34:51.752Z,0.70
2023-01-19T12:40:27.899Z,0.50
2023-01-19T12:45:48.849Z,0.60
2023-01-19T12:51:10.096Z,0.68
2023-01-19T12:56:34.975Z,0.63
2023-01-19T13:02:24.788Z,0.68
2023-01-19T13:08:06.718Z,0.90
2023-01-19T13:13:38.370Z,0.60
2023-01-19T13:19:02.049Z,0.60
2023-01-19T13:24:23.022Z,1.50
2023-01-19T13:29:44.135Z,1.13
2023-01-19T13:35:05.391Z,1.67
2023-01-19T13:40:36.842Z,1.27
2023-01-19T13:45:58.344Z,0.60
2023-01-19T13:51:19.395Z,0.88
2023-01-19T13:56:42.061Z,1.05
2023-01-19T14:02:12.582Z,1.55
2023-01-19T14:07:33.156Z,0.63
2023-01-19T14:13:37.424Z,1.33
2023-01-19T14:19:04.115Z,1.27
2023-01-19T14:24:25.877Z,1.40
2023-01-19T14:29:50.432Z,1.30
2023-01-19T14:35:11.303Z,0.90
2023-01-19T14:40:32.904Z,0.65
2023-01-19T14:45:54.362Z,1.23
2023-01-19T14:51:24.338Z,0.80
2023-01-19T14:56:45.088Z,0.85
2023-01-19T15:02:06.487Z,0.43
2023-01-19T15:07:28.476Z,0.93
2023-01-19T15:12:51.355Z,0.68
2023-01-19T15:18:18.568Z,0.70
2023-01-19T15:23:39.194Z,0.30
2023-01-19T15:28:59.740Z,0.73
2023-01-19T15:34:20.245Z,0.85
2023-01-19T15:39:40.842Z,0.82
2023-01-19T15:45:01.644Z,0.32
2023-01-19T15:50:23.535Z,1.00
2023-01-19T15:55:48.480Z,0.43
2023-01-19T16:01:14.036Z,1.25
2023-01-19T16:06:35.032Z,0.43
2023-01-19T16:11:57.019Z,1.58
2023-01-19T16:17:17.635Z,0.32
2023-01-19T16:22:38.527Z,0.28
2023-01-19T16:27:59.004Z,1.15
2023-01-19T16:33:19.656Z,0.75
2023-01-19T16:38:40.297Z,0.80
2023-01-19T16:44:01.197Z,0.90
2023-01-19T16:49:24.286Z,0.17
2023-01-19T16:54:45.035Z,0.77
2023-01-19T17:00:07.933Z,0.90
2023-01-19T17:05:28.284Z,0.40
2023-01-19T17:10:49.509Z,0.52
2023-01-19T17:16:10.384Z,0.68
2023-01-19T17:21:31.916Z,0.40
2023-01-19T17:26:52.614Z,0.52
2023-01-19T17:32:13.372Z,0.30
2023-01-19T17:37:33.836Z,0.68
2023-01-19T17:42:54.203Z,0.22
2023-01-19T17:48:14.642Z,1.15
2023-01-19T17:53:39.885Z,1.15
2023-01-19T17:59:00.591Z,0.68
2023-01-19T18:04:21.269Z,0.38
2023-01-19T18:09:42.207Z,0.77
2023-01-19T18:15:05.191Z,0.43
2023-01-19T18:20:26.246Z,0.40
2023-01-19T18:25:46.758Z,1.13
2023-01-19T18:31:09.979Z,1.42
2023-01-19T18:36:34.316Z,0.70
2023-01-19T18:47:15.698Z,0.47
2023-01-19T18:52:36.280Z,0.65
2023-01-19T18:57:57.060Z,0.40
2023-01-19T19:03:17.790Z,0.73
2023-01-19T19:08:38.440Z,0.85
2023-01-19T19:14:00.877Z,0.65
2023-01-19T19:19:21.733Z,1.20
2023-01-19T19:24:42.437Z,0.80
2023-01-19T19:30:03.660Z,2.10
2023-01-19T19:35:26.043Z,1.35
2023-01-19T19:40:46.749Z,0.55
2023-01-19T19:46:10.106Z,0.28
2023-01-19T19:51:31.013Z,2.50
2023-01-19T19:56:53.700Z,0.47
2023-01-19T20:02:14.156Z,0.50
2023-01-19T20:07:34.879Z,0.70
2023-01-19T20:12:55.625Z,0.47
2023-01-19T20:18:16.505Z,0.30
2023-01-19T20:23:37.414Z,0.80
2023-01-19T20:28:59.964Z,1.38
2023-01-19T20:34:22.513Z,0.70
2023-01-19T20:39:43.158Z,0.93
2023-01-19T20:45:04.069Z,0.65
2023-01-19T20:50:24.811Z,0.45
2023-01-19T20:55:45.233Z,0.17
2023-01-19T21:01:17.916Z,0.30
2023-01-19T21:06:39.400Z,0.30
2023-01-19T21:12:00.096Z,0.60
2023-01-19T21:17:20.740Z,0.93
2023-01-19T21:22:41.451Z,0.43
2023-01-19T21:28:02.173Z,0.20
2023-01-19T21:33:23.634Z,0.47
2023-01-19T21:38:44.614Z,0.63
2023-01-19T21:44:05.788Z,1.40
2023-01-19T21:49:26.556Z,1.17
2023-01-19T21:54:47.059Z,1.00
2023-01-19T22:00:10.249Z,1.65
2023-01-19T22:05:36.570Z,1.73
2023-01-19T22:11:05.591Z,1.75
2023-01-19T22:16:27.118Z,3.08
2023-01-19T22:21:48.203Z,1.75
2023-01-19T22:27:08.962Z,1.85
2023-01-19T22:32:31.123Z,1.48
2023-01-19T22:37:51.691Z,2.38
2023-01-19T22:43:12.404Z,1.60
2023-01-19T22:48:32.920Z,0.85
2023-01-19T22:53:53.495Z,0.82
2023-01-19T22:59:14.625Z,1.30
2023-01-19T23:04:35.346Z,1.40
2023-01-19T23:09:55.944Z,1.13
2023-01-19T23:15:16.620Z,1.05
2023-01-19T23:20:37.605Z,1.20
2023-01-19T23:26:06.161Z,0.68
2023-01-19T23:31:32.289Z,0.85
2023-01-19T23:36:52.938Z,0.68
2023-01-19T23:42:13.346Z,1.10
2023-01-19T23:47:35.783Z,1.10
2023-01-19T23:52:56.355Z,1.52
2023-01-19T23:58:17.067Z,0.60
